createdAt,value
2022-08-21T00:02:26.838Z,3.25
2022-08-21T00:04:57.354Z,3.15
2022-08-21T00:07:25.310Z,3.35
2022-08-21T00:09:53.960Z,3.63
2022-08-21T00:12:24.014Z,2.83
2022-08-21T00:14:51.195Z,3.08
2022-08-21T00:17:23.979Z,4.72
2022-08-21T00:19:50.883Z,3.53
2022-08-21T00:22:18.258Z,3.53
2022-08-21T00:24:45.303Z,3.35
2022-08-21T00:27:12.219Z,2.97
2022-08-21T00:29:39.092Z,3.50
2022-08-21T00:32:06.122Z,3.20
2022-08-21T00:34:33.061Z,4.13
2022-08-21T00:36:59.928Z,3.55
2022-08-21T00:39:27.002Z,4.00
2022-08-21T00:41:53.963Z,3.45
2022-08-21T00:44:20.825Z,4.07
2022-08-21T00:46:47.859Z,3.92
2022-08-21T00:49:14.817Z,3.67
2022-08-21T00:51:48.328Z,3.70
2022-08-21T00:54:18.640Z,3.42
2022-08-21T00:56:49.167Z,3.63
2022-08-21T00:59:18.792Z,3.63
2022-08-21T01:01:46.262Z,3.42
2022-08-21T01:04:13.748Z,4.10
2022-08-21T01:06:40.619Z,4.38
2022-08-21T01:09:07.558Z,3.50
2022-08-21T01:11:34.965Z,3.75
2022-08-21T01:14:02.018Z,3.92
2022-08-21T01:16:29.966Z,4.90
2022-08-21T01:18:57.036Z,4.45
2022-08-21T01:21:28.276Z,3.67
2022-08-21T01:23:57.474Z,4.95
2022-08-21T01:26:34.341Z,4.35
2022-08-21T01:29:23.283Z,4.20
2022-08-21T01:31:50.277Z,4.10
2022-08-21T01:34:17.285Z,3.80
2022-08-21T01:36:46.808Z,4.43
2022-08-21T01:39:15.446Z,4.75
2022-08-21T01:41:42.700Z,4.07
2022-08-21T01:44:09.815Z,4.05
2022-08-21T01:46:36.908Z,4.35
2022-08-21T01:49:05.598Z,4.88
2022-08-21T01:51:33.067Z,3.95
2022-08-21T01:53:59.967Z,5.00
2022-08-21T01:56:28.750Z,4.15
2022-08-21T01:58:55.818Z,4.25
2022-08-21T02:01:22.830Z,4.07
2022-08-21T02:03:49.741Z,4.40
2022-08-21T02:06:19.231Z,4.65
2022-08-21T02:08:47.287Z,4.10
2022-08-21T02:11:14.492Z,5.00
2022-08-21T02:13:41.831Z,5.20
2022-08-21T02:16:10.791Z,5.00
2022-08-21T02:18:37.893Z,4.80
2022-08-21T02:21:06.625Z,4.85
2022-08-21T02:23:33.781Z,4.95
2022-08-21T02:26:07.731Z,5.10
2022-08-21T02:28:35.437Z,4.78
2022-08-21T02:31:02.341Z,5.10
2022-08-21T02:33:29.930Z,5.22
2022-08-21T02:35:57.359Z,4.68
2022-08-21T02:38:27.827Z,5.05
2022-08-21T02:40:55.413Z,4.78
2022-08-21T02:43:24.383Z,5.53
2022-08-21T02:45:52.269Z,5.82
2022-08-21T02:48:22.971Z,5.65
2022-08-21T02:51:01.287Z,5.45
2022-08-21T02:53:29.623Z,6.30
2022-08-21T02:55:58.898Z,6.22
2022-08-21T02:58:30.245Z,5.95
2022-08-21T03:00:57.232Z,5.43
2022-08-21T03:03:24.121Z,5.15
2022-08-21T03:05:51.452Z,5.88
2022-08-21T03:08:19.376Z,5.10
2022-08-21T03:10:53.361Z,5.82
2022-08-21T03:13:24.565Z,5.95
2022-08-21T03:15:51.693Z,6.13
2022-08-21T03:18:18.959Z,6.10
2022-08-21T03:20:47.042Z,5.75
2022-08-21T03:23:18.478Z,6.15
2022-08-21T03:25:47.759Z,5.75
2022-08-21T03:28:17.683Z,6.80
2022-08-21T03:30:47.505Z,6.82
2022-08-21T03:33:15.488Z,5.85
2022-08-21T03:35:48.069Z,6.43
2022-08-21T03:38:15.379Z,6.38
2022-08-21T03:40:43.182Z,5.85
2022-08-21T03:43:10.880Z,6.15
2022-08-21T03:45:39.398Z,6.38
2022-08-21T03:48:08.047Z,6.53
2022-08-21T03:50:41.006Z,6.30
2022-08-21T03:53:16.925Z,7.47
2022-08-21T03:55:49.314Z,6.82
2022-08-21T03:58:19.267Z,7.57
2022-08-21T04:00:48.146Z,7.40
2022-08-21T04:03:15.476Z,7.70
2022-08-21T04:05:42.983Z,7.55
2022-08-21T04:08:09.898Z,7.20
2022-08-21T04:10:40.055Z,7.85
2022-08-21T04:13:08.716Z,7.60
2022-08-21T04:15:36.068Z,7.72
2022-08-21T04:18:03.598Z,8.27
2022-08-21T04:20:30.481Z,7.35
2022-08-21T04:22:57.659Z,8.00
2022-08-21T04:25:26.815Z,8.02
2022-08-21T04:27:54.120Z,7.75
2022-08-21T04:30:21.150Z,7.80
2022-08-21T04:32:56.693Z,8.02
2022-08-21T04:35:25.019Z,8.75
2022-08-21T04:37:52.056Z,8.13
2022-08-21T04:40:21.140Z,7.43
2022-08-21T04:42:54.715Z,7.97
2022-08-21T04:45:27.879Z,8.60
2022-08-21T04:47:57.317Z,7.75
2022-08-21T04:50:49.593Z,9.38
2022-08-21T04:53:21.186Z,9.10
2022-08-21T04:55:48.857Z,8.68
2022-08-21T04:58:18.526Z,8.20
2022-08-21T05:00:46.984Z,9.15
2022-08-21T05:03:17.052Z,8.13
2022-08-21T05:05:44.828Z,7.78
2022-08-21T05:08:15.427Z,8.70
2022-08-21T05:10:44.158Z,8.10
2022-08-21T05:13:13.481Z,8.63
2022-08-21T05:15:41.425Z,8.40
2022-08-21T05:18:08.367Z,8.65
2022-08-21T05:20:35.601Z,8.50
2022-08-21T05:23:08.986Z,7.93
2022-08-21T05:25:36.084Z,7.85
2022-08-21T05:28:03.693Z,9.25
2022-08-21T05:30:30.743Z,8.27
2022-08-21T05:33:03.229Z,8.00
2022-08-21T05:35:30.838Z,8.35
2022-08-21T05:37:58.902Z,8.32
2022-08-21T05:40:26.618Z,7.78
2022-08-21T05:42:56.793Z,7.30
2022-08-21T05:45:42.084Z,7.43
2022-08-21T05:48:24.864Z,7.20
2022-08-21T05:50:53.280Z,7.75
2022-08-21T05:53:21.978Z,8.15
2022-08-21T05:55:49.317Z,7.65
2022-08-21T05:58:18.744Z,7.20
2022-08-21T06:00:48.323Z,7.28
2022-08-21T06:03:25.318Z,7.30
2022-08-21T06:05:52.585Z,7.78
2022-08-21T06:08:20.863Z,6.43
2022-08-21T06:10:49.499Z,7.15
2022-08-21T06:13:18.345Z,7.28
2022-08-21T06:15:45.411Z,7.60
2022-08-21T06:18:13.085Z,7.22
2022-08-21T06:20:41.211Z,7.28
2022-08-21T06:23:08.190Z,7.32
2022-08-21T06:25:35.544Z,7.25
2022-08-21T06:28:07.517Z,6.93
2022-08-21T06:30:37.082Z,6.95
2022-08-21T06:33:04.934Z,7.00
2022-08-21T06:35:31.911Z,6.55
2022-08-21T06:37:59.496Z,7.05
2022-08-21T06:40:30.448Z,6.13
2022-08-21T06:43:10.769Z,6.60
2022-08-21T06:45:42.092Z,6.88
2022-08-21T06:48:09.057Z,7.07
2022-08-21T06:50:36.530Z,6.72
2022-08-21T06:53:10.876Z,6.07
2022-08-21T06:55:38.787Z,6.47
2022-08-21T06:58:06.270Z,5.97
2022-08-21T07:00:33.656Z,6.05
2022-08-21T07:03:01.013Z,6.88
2022-08-21T07:05:30.373Z,5.95
2022-08-21T07:07:58.096Z,6.40
2022-08-21T07:10:26.860Z,6.28
2022-08-21T07:13:01.066Z,6.10
2022-08-21T07:15:30.443Z,6.32
2022-08-21T07:17:58.595Z,7.35
2022-08-21T07:20:26.837Z,6.70
2022-08-21T07:22:54.010Z,5.85
2022-08-21T07:25:21.027Z,6.25
2022-08-21T07:27:47.863Z,5.57
2022-08-21T07:30:15.118Z,5.63
2022-08-21T07:32:41.947Z,6.00
2022-08-21T07:35:08.993Z,5.93
2022-08-21T07:37:36.235Z,6.35
2022-08-21T07:40:03.702Z,6.30
2022-08-21T07:42:30.996Z,7.18
2022-08-21T07:44:57.964Z,5.93
2022-08-21T07:47:38.685Z,5.65
2022-08-21T07:50:12.268Z,6.90
2022-08-21T07:52:40.469Z,5.78
2022-08-21T07:55:09.619Z,5.30
2022-08-21T07:57:36.583Z,5.65
2022-08-21T08:00:06.774Z,5.65
2022-08-21T08:05:08.762Z,6.15
2022-08-21T08:07:35.720Z,5.80
2022-08-21T08:10:04.835Z,5.38
2022-08-21T08:12:31.793Z,4.30
2022-08-21T08:14:59.977Z,5.07
2022-08-21T08:17:27.429Z,5.68
2022-08-21T08:19:55.019Z,4.50
2022-08-21T08:22:26.585Z,4.10
2022-08-21T08:24:54.045Z,4.05
2022-08-21T08:27:21.824Z,4.05
2022-08-21T08:29:49.712Z,3.33
2022-08-21T08:32:16.835Z,4.15
2022-08-21T08:34:44.175Z,3.70
2022-08-21T08:37:11.962Z,3.40
2022-08-21T08:39:39.139Z,3.00
2022-08-21T08:42:32.866Z,2.35
2022-08-21T08:45:06.428Z,2.83
2022-08-21T08:47:38.569Z,3.28
2022-08-21T08:50:46.462Z,2.63
2022-08-21T08:53:21.260Z,3.03
2022-08-21T08:55:52.219Z,2.90
2022-08-21T08:58:28.830Z,3.10
2022-08-21T09:00:56.347Z,3.42
2022-08-21T09:03:28.080Z,3.10
2022-08-21T09:06:25.375Z,2.90
2022-08-21T09:09:03.877Z,3.20
2022-08-21T09:11:49.475Z,2.38
2022-08-21T09:14:54.165Z,2.92
2022-08-21T09:17:31.620Z,2.60
2022-08-21T09:20:07.584Z,2.53
2022-08-21T09:23:01.692Z,3.15
2022-08-21T09:25:33.972Z,2.92
2022-08-21T09:28:00.931Z,2.70
2022-08-21T09:30:32.154Z,3.00
2022-08-21T09:32:59.608Z,3.00
2022-08-21T09:35:27.183Z,3.17
2022-08-21T09:38:04.309Z,2.33
2022-08-21T09:40:37.465Z,2.70
2022-08-21T09:43:08.095Z,2.45
2022-08-21T09:45:36.866Z,3.53
2022-08-21T09:48:19.322Z,2.70
2022-08-21T09:50:48.481Z,2.78
2022-08-21T09:53:35.668Z,2.83
2022-08-21T09:56:46.766Z,2.60
2022-08-21T09:59:36.290Z,2.90
2022-08-21T10:02:23.765Z,2.65
2022-08-21T10:04:53.775Z,2.78
2022-08-21T10:07:23.979Z,2.55
2022-08-21T10:10:14.516Z,2.47
2022-08-21T10:12:49.497Z,2.35
2022-08-21T10:15:34.479Z,2.50
2022-08-21T10:18:23.159Z,2.00
2022-08-21T10:21:12.156Z,2.58
2022-08-21T10:23:57.507Z,2.60
2022-08-21T10:26:50.503Z,2.40
2022-08-21T10:29:45.354Z,3.10
2022-08-21T10:32:32.814Z,2.85
2022-08-21T10:35:20.808Z,3.05
2022-08-21T10:38:01.409Z,3.20
2022-08-21T10:40:47.751Z,2.83
2022-08-21T10:43:33.208Z,2.80
2022-08-21T10:46:18.997Z,2.63
2022-08-21T10:51:33.351Z,2.75
2022-08-21T10:54:09.471Z,2.53
2022-08-21T10:56:41.484Z,2.53
2022-08-21T10:59:42.023Z,2.50
2022-08-21T11:02:28.662Z,2.70
2022-08-21T11:05:08.290Z,2.85
2022-08-21T11:07:59.501Z,2.47
2022-08-21T11:10:38.134Z,2.35
2022-08-21T11:13:22.312Z,2.67
2022-08-21T11:16:17.127Z,3.13
2022-08-21T11:18:54.808Z,2.72
2022-08-21T11:21:47.659Z,2.97
2022-08-21T11:24:29.533Z,2.95
2022-08-21T11:27:00.906Z,2.80
2022-08-21T11:29:37.706Z,2.90
2022-08-21T11:32:42.033Z,2.58
2022-08-21T11:35:34.586Z,2.70
2022-08-21T11:38:26.260Z,2.63
2022-08-21T11:41:19.351Z,2.35
2022-08-21T11:44:06.329Z,3.13
2022-08-21T11:46:36.113Z,2.88
2022-08-21T11:49:35.600Z,2.45
2022-08-21T11:52:32.416Z,2.38
2022-08-21T11:55:25.764Z,2.75
2022-08-21T11:58:31.214Z,2.60
2022-08-21T12:01:06.151Z,2.65
2022-08-21T12:03:37.469Z,2.35
2022-08-21T12:06:07.783Z,2.80
2022-08-21T12:08:35.887Z,2.90
2022-08-21T12:11:17.185Z,2.50
2022-08-21T12:13:55.869Z,2.58
2022-08-21T12:16:40.095Z,2.83
2022-08-21T12:19:11.327Z,2.85
2022-08-21T12:21:55.558Z,2.63
2022-08-21T12:24:28.408Z,2.17
2022-08-21T12:27:14.767Z,2.60
2022-08-21T12:29:48.535Z,3.10
2022-08-21T12:32:15.385Z,2.72
2022-08-21T12:35:24.270Z,2.50
2022-08-21T12:38:06.311Z,2.65
2022-08-21T12:40:41.153Z,3.03
2022-08-21T12:43:16.612Z,2.50
2022-08-21T12:45:46.522Z,2.78
2022-08-21T12:48:34.695Z,2.75
2022-08-21T12:51:18.868Z,2.67
2022-08-21T12:53:50.471Z,2.90
2022-08-21T12:56:21.253Z,2.83
2022-08-21T12:58:51.964Z,2.70
2022-08-21T13:01:44.979Z,3.05
2022-08-21T13:04:18.357Z,2.97
2022-08-21T13:06:50.917Z,2.53
2022-08-21T13:09:24.423Z,2.25
2022-08-21T13:11:52.522Z,2.80
2022-08-21T13:14:31.392Z,3.08
2022-08-21T13:17:00.812Z,2.60
2022-08-21T13:19:30.447Z,2.40
2022-08-21T13:21:57.835Z,2.85
2022-08-21T13:24:45.927Z,2.22
2022-08-21T13:27:43.226Z,2.97
2022-08-21T13:30:15.070Z,2.72
2022-08-21T13:32:47.116Z,3.33
2022-08-21T13:35:20.762Z,3.00
2022-08-21T13:37:50.874Z,3.10
2022-08-21T13:40:25.673Z,2.97
2022-08-21T13:42:53.568Z,2.85
2022-08-21T13:45:27.064Z,2.83
2022-08-21T13:47:54.815Z,2.78
2022-08-21T13:50:25.303Z,2.88
2022-08-21T13:53:02.569Z,2.83
2022-08-21T13:55:42.833Z,2.65
2022-08-21T13:58:11.992Z,3.08
2022-08-21T14:00:51.111Z,2.85
2022-08-21T14:03:31.614Z,2.60
2022-08-21T14:06:00.462Z,3.00
2022-08-21T14:08:35.471Z,2.88
2022-08-21T14:11:05.724Z,2.65
2022-08-21T14:13:42.979Z,2.83
2022-08-21T14:16:41.239Z,3.13
2022-08-21T14:19:18.818Z,2.67
2022-08-21T14:21:46.934Z,2.70
2022-08-21T14:24:31.753Z,3.13
2022-08-21T14:27:07.633Z,3.25
2022-08-21T14:29:42.069Z,2.95
2022-08-21T14:32:21.438Z,2.83
2022-08-21T14:34:51.442Z,2.67
2022-08-21T14:37:19.078Z,3.00
2022-08-21T14:39:46.643Z,3.13
2022-08-21T14:42:14.105Z,2.80
2022-08-21T14:44:41.121Z,2.78
2022-08-21T14:47:09.863Z,3.45
2022-08-21T14:49:36.970Z,3.45
2022-08-21T14:52:04.132Z,2.80
2022-08-21T14:54:32.979Z,3.17
2022-08-21T14:57:04.380Z,3.03
2022-08-21T14:59:33.626Z,3.50
2022-08-21T15:02:01.130Z,2.97
2022-08-21T15:04:28.164Z,3.15
2022-08-21T15:06:55.029Z,3.58
2022-08-21T15:09:22.417Z,2.83
2022-08-21T15:11:49.468Z,3.40
2022-08-21T15:14:22.525Z,3.30
2022-08-21T15:16:51.363Z,2.92
2022-08-21T15:19:18.294Z,3.33
2022-08-21T15:21:45.271Z,3.33
2022-08-21T15:24:12.148Z,3.35
2022-08-21T15:26:39.540Z,3.03
2022-08-21T15:29:08.237Z,3.30
2022-08-21T15:31:36.406Z,3.53
2022-08-21T15:34:03.971Z,3.35
2022-08-21T15:36:30.955Z,2.90
2022-08-21T15:38:57.990Z,2.85
2022-08-21T15:41:24.898Z,3.35
2022-08-21T15:43:53.990Z,3.03
2022-08-21T15:46:22.067Z,3.63
2022-08-21T15:48:49.286Z,2.97
2022-08-21T15:51:17.667Z,3.63
2022-08-21T15:53:45.395Z,3.22
2022-08-21T15:56:24.067Z,3.55
2022-08-21T15:58:53.253Z,3.17
2022-08-21T16:01:21.855Z,3.45
2022-08-21T16:03:53.325Z,2.85
2022-08-21T16:06:38.384Z,3.20
2022-08-21T16:09:07.340Z,3.45
2022-08-21T16:11:34.198Z,3.53
2022-08-21T16:14:01.118Z,3.88
2022-08-21T16:16:29.397Z,3.42
2022-08-21T16:18:58.755Z,2.83
2022-08-21T16:21:25.708Z,3.67
2022-08-21T16:23:52.727Z,3.05
2022-08-21T16:26:19.591Z,3.22
2022-08-21T16:28:50.354Z,2.67
2022-08-21T16:31:17.780Z,3.22
2022-08-21T16:33:52.473Z,3.30
2022-08-21T16:36:26.393Z,3.30
2022-08-21T16:38:54.976Z,3.47
2022-08-21T16:41:23.985Z,3.80
2022-08-21T16:43:52.199Z,4.00
2022-08-21T16:46:21.617Z,3.47
2022-08-21T16:48:50.131Z,3.35
2022-08-21T16:51:17.449Z,3.08
2022-08-21T16:53:44.667Z,3.20
2022-08-21T16:56:14.398Z,3.58
2022-08-21T16:58:44.160Z,3.63
2022-08-21T17:01:15.188Z,3.45
2022-08-21T17:03:48.216Z,3.05
2022-08-21T17:06:15.979Z,3.63
2022-08-21T17:08:44.448Z,3.00
2022-08-21T17:11:37.158Z,3.35
2022-08-21T17:14:19.546Z,3.45
2022-08-21T17:16:49.779Z,3.47
2022-08-21T17:19:17.593Z,3.30
2022-08-21T17:21:44.590Z,3.35
2022-08-21T17:24:15.433Z,3.45
2022-08-21T17:26:43.689Z,3.10
2022-08-21T17:29:14.331Z,3.38
2022-08-21T17:31:43.039Z,2.97
2022-08-21T17:34:11.550Z,3.47
2022-08-21T17:36:38.509Z,3.10
2022-08-21T17:39:05.758Z,3.63
2022-08-21T17:41:33.479Z,3.17
2022-08-21T17:44:07.188Z,3.88
2022-08-21T17:46:34.353Z,3.10
2022-08-21T17:49:01.572Z,3.83
2022-08-21T17:51:28.711Z,3.28
2022-08-21T17:53:55.582Z,3.30
2022-08-21T17:56:28.259Z,3.95
2022-08-21T17:58:55.258Z,2.90
2022-08-21T18:01:22.215Z,3.35
2022-08-21T18:03:49.347Z,3.03
2022-08-21T18:06:18.128Z,3.67
2022-08-21T18:08:45.873Z,3.03
2022-08-21T18:11:23.061Z,3.22
2022-08-21T18:13:53.623Z,3.25
2022-08-21T18:16:22.088Z,3.33
2022-08-21T18:18:51.657Z,3.50
2022-08-21T18:21:19.032Z,3.45
2022-08-21T18:23:46.178Z,4.82
2022-08-21T18:26:25.361Z,5.25
2022-08-21T18:28:52.743Z,4.38
2022-08-21T18:31:21.061Z,4.35
2022-08-21T18:33:58.177Z,4.18
2022-08-21T18:36:27.615Z,4.35
2022-08-21T18:39:08.641Z,4.20
2022-08-21T18:41:45.556Z,4.00
2022-08-21T18:44:13.392Z,4.55
2022-08-21T18:46:40.607Z,4.00
2022-08-21T18:49:07.531Z,3.75
2022-08-21T18:51:34.421Z,4.60
2022-08-21T18:54:01.323Z,3.90
2022-08-21T18:56:29.172Z,3.80
2022-08-21T18:58:58.280Z,3.78
2022-08-21T19:01:25.821Z,3.28
2022-08-21T19:03:53.059Z,3.15
2022-08-21T19:06:19.956Z,3.08
2022-08-21T19:08:46.877Z,3.28
2022-08-21T19:11:16.586Z,3.50
2022-08-21T19:13:53.310Z,3.95
2022-08-21T19:16:21.904Z,3.05
2022-08-21T19:18:49.080Z,3.30
2022-08-21T19:21:16.463Z,3.15
2022-08-21T19:23:48.254Z,3.50
2022-08-21T19:26:22.336Z,3.20
2022-08-21T19:28:52.122Z,3.40
2022-08-21T19:31:23.695Z,4.07
2022-08-21T19:33:59.038Z,3.97
2022-08-21T19:36:29.994Z,4.40
2022-08-21T19:38:57.398Z,5.15
2022-08-21T19:41:27.677Z,5.78
2022-08-21T19:43:58.050Z,7.30
2022-08-21T19:46:35.178Z,6.30
2022-08-21T19:49:04.460Z,5.80
2022-08-21T19:51:35.022Z,5.72
2022-08-21T19:54:02.350Z,6.38
2022-08-21T19:56:32.348Z,5.20
2022-08-21T19:59:03.069Z,4.63
2022-08-21T20:01:32.991Z,5.80
2022-08-21T20:04:00.265Z,5.45
2022-08-21T20:06:27.338Z,5.90
2022-08-21T20:08:55.331Z,5.70
2022-08-21T20:11:38.867Z,5.20
2022-08-21T20:14:07.576Z,5.70
2022-08-21T20:16:34.850Z,6.13
2022-08-21T20:19:05.627Z,7.50
2022-08-21T20:21:43.319Z,7.97
2022-08-21T20:24:15.399Z,7.07
2022-08-21T20:26:49.370Z,8.63
2022-08-21T20:29:24.521Z,9.55
2022-08-21T20:31:59.851Z,8.82
2022-08-21T20:34:26.729Z,8.00
2022-08-21T20:36:53.696Z,8.88
2022-08-21T20:39:23.727Z,8.30
2022-08-21T20:41:52.627Z,8.38
2022-08-21T20:44:20.653Z,8.70
2022-08-21T20:46:47.771Z,9.88
2022-08-21T20:49:21.354Z,7.93
2022-08-21T20:51:52.021Z,7.93
2022-08-21T20:54:44.183Z,8.13
2022-08-21T20:57:21.860Z,8.70
2022-08-21T20:59:56.251Z,7.45
2022-08-21T21:03:05.901Z,6.72
2022-08-21T21:05:48.177Z,7.93
2022-08-21T21:08:39.522Z,7.15
2022-08-21T21:11:09.841Z,7.93
2022-08-21T21:13:51.358Z,7.57
2022-08-21T21:16:24.499Z,7.40
2022-08-21T21:19:10.845Z,6.47
2022-08-21T21:21:51.255Z,6.10
2022-08-21T21:24:48.180Z,6.07
2022-08-21T21:27:28.984Z,6.22
2022-08-21T21:30:07.062Z,6.82
2022-08-21T21:32:39.605Z,6.50
2022-08-21T21:35:08.592Z,7.50
2022-08-21T21:38:02.427Z,6.53
2022-08-21T21:40:50.225Z,6.50
2022-08-21T21:43:46.876Z,6.65
2022-08-21T21:46:16.582Z,6.90
2022-08-21T21:48:57.407Z,6.90
2022-08-21T21:51:43.569Z,6.45
2022-08-21T21:54:16.476Z,8.55
2022-08-21T21:56:52.542Z,7.70
2022-08-21T21:59:39.663Z,7.43
2022-08-21T22:02:40.660Z,8.75
2022-08-21T22:05:50.473Z,8.82
2022-08-21T22:08:36.802Z,9.35
2022-08-21T22:11:24.382Z,8.55
2022-08-21T22:14:13.553Z,8.23
2022-08-21T22:16:43.797Z,8.15
2022-08-21T22:19:24.175Z,7.10
2022-08-21T22:22:07.509Z,8.90
2022-08-21T22:24:44.515Z,8.23
2022-08-21T22:27:17.511Z,9.73
2022-08-21T22:29:50.498Z,8.30
2022-08-21T22:32:40.389Z,9.13
2022-08-21T22:35:24.185Z,10.30
2022-08-21T22:37:57.518Z,10.75
2022-08-21T22:40:26.512Z,10.00
2022-08-21T22:43:01.024Z,10.52
2022-08-21T22:45:30.890Z,9.45
2022-08-21T22:48:05.876Z,9.13
2022-08-21T22:50:39.888Z,9.43
2022-08-21T22:53:08.961Z,9.52
2022-08-21T22:55:38.608Z,9.25
2022-08-21T22:58:11.818Z,9.93
2022-08-21T23:00:56.672Z,10.23
2022-08-21T23:03:26.602Z,9.30
2022-08-21T23:06:00.544Z,8.50
2022-08-21T23:08:32.171Z,9.25
2022-08-21T23:11:05.933Z,9.20
2022-08-21T23:13:42.602Z,9.38
2022-08-21T23:16:21.384Z,8.80
2022-08-21T23:19:11.548Z,9.73
2022-08-21T23:21:51.851Z,9.25
2022-08-21T23:24:34.011Z,9.75
2022-08-21T23:27:13.053Z,9.40
2022-08-21T23:30:12.513Z,9.70
2022-08-21T23:32:53.282Z,10.07
2022-08-21T23:35:59.838Z,8.52
2022-08-21T23:38:59.693Z,9.05
2022-08-21T23:41:36.796Z,9.25
2022-08-21T23:44:58.488Z,9.23
2022-08-21T23:48:10.939Z,8.10
2022-08-21T23:50:50.530Z,8.30
2022-08-21T23:53:37.074Z,7.70
2022-08-21T23:56:31.896Z,7.05
2022-08-21T23:59:29.657Z,6.78
